地図

経路データ

SID SEASON NUMBER BASIN SUBBASIN NAME ISO_TIME NATURE LAT LON WMO_WIND WMO_PRES WMO_AGENCY TRACK_TYPE DIST2LAND LANDFALL IFLAG USA_AGENCY USA_ATCF_ID USA_LAT USA_LON USA_RECORD USA_STATUS USA_WIND USA_PRES USA_SSHS USA_R34_NE USA_R34_SE USA_R34_SW USA_R34_NW USA_R50_NE USA_R50_SE USA_R50_SW USA_R50_NW USA_R64_NE USA_R64_SE USA_R64_SW USA_R64_NW USA_POCI USA_ROCI USA_RMW USA_EYE TOKYO_LAT TOKYO_LON TOKYO_GRADE TOKYO_WIND TOKYO_PRES TOKYO_R50_DIR TOKYO_R50_LONG TOKYO_R50_SHORT TOKYO_R30_DIR TOKYO_R30_LONG TOKYO_R30_SHORT TOKYO_LAND CMA_LAT CMA_LON CMA_CAT CMA_WIND CMA_PRES HKO_LAT HKO_LON HKO_CAT HKO_WIND HKO_PRES NEWDELHI_LAT NEWDELHI_LON NEWDELHI_GRADE NEWDELHI_WIND NEWDELHI_PRES NEWDELHI_CI NEWDELHI_DP NEWDELHI_POCI REUNION_LAT REUNION_LON REUNION_TYPE REUNION_WIND REUNION_PRES REUNION_TNUM REUNION_CI REUNION_RMW REUNION_R34_NE REUNION_R34_SE REUNION_R34_SW REUNION_R34_NW REUNION_R50_NE REUNION_R50_SE REUNION_R50_SW REUNION_R50_NW REUNION_R64_NE REUNION_R64_SE REUNION_R64_SW REUNION_R64_NW BOM_LAT BOM_LON BOM_TYPE BOM_WIND BOM_PRES BOM_TNUM BOM_CI BOM_RMW BOM_R34_NE BOM_R34_SE BOM_R34_SW BOM_R34_NW BOM_R50_NE BOM_R50_SE BOM_R50_SW BOM_R50_NW BOM_R64_NE BOM_R64_SE BOM_R64_SW BOM_R64_NW BOM_ROCI BOM_POCI BOM_EYE BOM_POS_METHOD BOM_PRES_METHOD NADI_LAT NADI_LON NADI_CAT NADI_WIND NADI_PRES WELLINGTON_LAT WELLINGTON_LON WELLINGTON_WIND WELLINGTON_PRES DS824_LAT DS824_LON DS824_STAGE DS824_WIND DS824_PRES TD9636_LAT TD9636_LON TD9636_STAGE TD9636_WIND TD9636_PRES TD9635_LAT TD9635_LON TD9635_WIND TD9635_PRES TD9635_ROCI NEUMANN_LAT NEUMANN_LON NEUMANN_CLASS NEUMANN_WIND NEUMANN_PRES MLC_LAT MLC_LON MLC_CLASS MLC_WIND MLC_PRES USA_GUST BOM_GUST BOM_GUST_PER REUNION_GUST REUNION_GUST_PER USA_SEAHGT USA_SEARAD_NE USA_SEARAD_SE USA_SEARAD_SW USA_SEARAD_NW STORM_SPEED STORM_DIR
1942241N18090 1942 46 NI BB NOT_NAMED 1942-08-29 00:00:00 TS 18.4000 89.9000 main 362 362 _________O____ -1 18.4000 89.9000 TC 30 2 285
1942241N18090 1942 46 NI BB NOT_NAMED 1942-08-29 03:00:00 TS 18.4284 89.7900 main 365 352 _________PO___ -1 18.4426 89.7350 TC 30 18.4000 89.9000 1 2 292
1942241N18090 1942 46 NI BB NOT_NAMED 1942-08-29 06:00:00 TS 18.4838 89.6775 main 352 339 _________OP___ -1 18.5000 89.6000 TC 30 18.4594 89.7938 1 2 303
1942241N18090 1942 46 NI BB NOT_NAMED 1942-08-29 09:00:00 TS 18.5593 89.5814 main 339 338 _________PP___ -1 18.5849 89.5074 TC 30 18.5251 89.6801 1 3 311
1942241N18090 1942 46 NI BB NOT_NAMED 1942-08-29 12:00:00 TS 18.6516 89.4756 main 327 313 _________OP___ -1 18.7000 89.4000 TC 30 18.6032 89.5513 1 3 309
1942241N18090 1942 46 NI BB NOT_NAMED 1942-08-29 15:00:00 TS 18.7712 89.3112 main 313 296 _________PO___ -1 18.8425 89.2225 TC 30 18.7000 89.4000 1 4 307
1942241N18090 1942 46 NI BB NOT_NAMED 1942-08-29 18:00:00 TS 18.9101 89.1099 main 296 272 _________OP___ -1 19.0000 89.0000 TC 30 18.8202 89.2199 1 5 305
1942241N18090 1942 46 NI BB NOT_NAMED 1942-08-29 21:00:00 TS 19.0524 88.8911 main 266 242 _________PP___ -1 19.1424 88.7724 TC 30 18.9623 89.0098 1 5 304
1942241N18090 1942 46 NI BB NOT_NAMED 1942-08-30 00:00:00 TS 19.2116 88.6349 main 233 195 _________OP___ -1 19.3000 88.5000 TC 30 19.1233 88.7698 1 6 303
1942241N18090 1942 46 NI BB NOT_NAMED 1942-08-30 03:00:00 TS 19.3963 88.3288 main 195 156 _________PO___ -1 19.4926 88.1575 TC 30 19.3000 88.5000 1 7 303
1942241N18090 1942 46 NI BB NOT_NAMED 1942-08-30 06:00:00 TS 19.5928 88.0019 main 156 118 _________OP___ -1 19.7000 87.8000 TC 30 19.4857 88.2038 1 7 303
1942241N18090 1942 46 NI BB NOT_NAMED 1942-08-30 09:00:00 TS 19.7925 87.6899 main 118 80 _________PP___ -1 19.8999 87.4999 TC 30 19.6851 87.8800 1 7 304
1942241N18090 1942 46 NI BB NOT_NAMED 1942-08-30 12:00:00 TS 19.9959 87.3706 main 80 33 _________OP___ -1 20.1000 87.2000 TC 30 19.8919 87.5412 1 7 303
1942241N18090 1942 46 NI BB NOT_NAMED 1942-08-30 15:00:00 TS 20.2000 87.0250 main 33 0 _________PO___ -1 20.3000 86.8500 TC 30 20.1000 87.2000 1 7 303
1942241N18090 1942 46 NI BB NOT_NAMED 1942-08-30 18:00:00 TS 20.3995 86.7115 main 0 0 _________OP___ -1 20.5000 86.5000 TC 30 20.2990 86.9230 1 7 306
1942241N18090 1942 46 NI BB NOT_NAMED 1942-08-30 21:00:00 TS 20.5953 86.4380 main 0 0 _________PP___ -1 20.6921 86.2371 TC 30 20.4984 86.6388 1 7 305
1942241N18090 1942 46 NI BB NOT_NAMED 1942-08-31 00:00:00 TS 20.7994 86.1052 main 0 0 _________OP___ -1 20.9000 85.9000 TC 30 20.6987 86.3103 1 9 300
1942241N18090 1942 46 NI BB NOT_NAMED 1942-08-31 03:00:00 TS 21.0288 85.6264 main 0 0 _________PO___ -1 21.1576 85.3527 TC 30 20.9000 85.9000 1 11 294
1942241N18090 1942 46 NI BB NOT_NAMED 1942-08-31 06:00:00 TS 21.2527 85.0146 main 0 0 _________OP___ -1 21.4000 84.7000 TC 30 21.1054 85.3293 1 13 289
1942241N18090 1942 46 NI BB NOT_NAMED 1942-08-31 09:00:00 TS 21.4373 84.3540 main 0 0 _________PP___ -1 21.5651 84.0273 TC 30 21.3094 84.6807 1 13 286
1942241N18090 1942 46 NI BB NOT_NAMED 1942-08-31 12:00:00 TS 21.6043 83.7083 main 0 0 _________OP___ -1 21.7000 83.4000 TC 30 21.5085 84.0167 1 12 287
1942241N18090 1942 46 NI BB NOT_NAMED 1942-08-31 15:00:00 TS 21.7711 83.1561 main 0 0 _________PO___ -1 21.8421 82.9123 TC 30 21.7000 83.4000 1 10 289
1942241N18090 1942 46 NI BB NOT_NAMED 1942-08-31 18:00:00 TS 21.9367 82.6902 main 0 0 _________OP___ -1 22.0000 82.5000 TC 30 21.8734 82.8804 1 9 292
1942241N18090 1942 46 NI BB NOT_NAMED 1942-08-31 21:00:00 TS 22.1172 82.2422 main 0 0 _________PP___ -1 22.1925 82.0626 TC 30 22.0418 82.4219 1 9 296
1942241N18090 1942 46 NI BB NOT_NAMED 1942-09-01 00:00:00 TS 22.3072 81.8637 main 0 0 _________OP___ -1 22.4000 81.7000 TC 30 22.2143 82.0275 1 7 302
1942241N18090 1942 46 NI BB NOT_NAMED 1942-09-01 03:00:00 TS 22.4962 81.5849 main 0 0 _________PO___ -1 22.5923 81.4698 TC 30 22.4000 81.7000 1 6 311
1942241N18090 1942 46 NI BB NOT_NAMED 1942-09-01 06:00:00 TS 22.7090 81.3715 main 0 0 _________OP___ -1 22.8000 81.3000 TC 30 22.6180 81.4429 1 6 320
1942241N18090 1942 46 NI BB NOT_NAMED 1942-09-01 09:00:00 TS 22.9495 81.1772 main 0 0 _________PP___ -1 23.0499 81.1075 TC 30 22.8491 81.2468 1 6 324
1942241N18090 1942 46 NI BB NOT_NAMED 1942-09-01 12:00:00 TS 23.1903 80.9887 main 0 0 _________OP___ -1 23.3000 80.9000 TC 30 23.0806 81.0774 1 6 321
1942241N18090 1942 46 NI BB NOT_NAMED 1942-09-01 15:00:00 TS 23.4075 80.7787 main 0 0 _________PO___ -1 23.5150 80.6575 TC 30 23.3000 80.9000 1 6 315
1942241N18090 1942 46 NI BB NOT_NAMED 1942-09-01 18:00:00 TS 23.6048 80.5322 main 0 0 _________OP___ -1 23.7000 80.4000 TC 30 23.5097 80.6644 1 6 310
1942241N18090 1942 46 NI BB NOT_NAMED 1942-09-01 21:00:00 TS 23.7875 80.2826 main 0 0 _________PP___ -1 23.8725 80.1500 TC 30 23.7025 80.4152 1 6 306
1942241N18090 1942 46 NI BB NOT_NAMED 1942-09-02 00:00:00 TS 23.9345 80.0291 main 0 0 _________OP___ -1 24.0000 79.9000 TC 30 23.8690 80.1583 1 5 298
1942241N18090 1942 46 NI BB NOT_NAMED 1942-09-02 03:00:00 TS 24.0325 79.7749 main 0 0 _________PO___ -1 24.0650 79.6499 TC 30 24.0000 79.9000 1 5 289
1942241N18090 1942 46 NI BB NOT_NAMED 1942-09-02 06:00:00 TS 24.0888 79.5308 main 0 0 _________OP___ -1 24.1000 79.4000 TC 30 24.0775 79.6616 1 5 283
1942241N18090 1942 46 NI BB NOT_NAMED 1942-09-02 09:00:00 TS 24.1360 79.2933 main 0 0 _________PP___ -1 24.1499 79.1650 TC 30 24.1221 79.4217 1 5 281
1942241N18090 1942 46 NI BB NOT_NAMED 1942-09-02 12:00:00 TS 24.1778 79.0355 main 0 0 _________OP___ -1 24.2000 78.9000 TC 30 24.1556 79.1710 1 5 279
1942241N18090 1942 46 NI BB NOT_NAMED 1942-09-02 15:00:00 TS 24.2175 78.7287 main 0 0 _________PO___ -1 24.2351 78.5574 TC 30 24.2000 78.9000 1 6 280
1942241N18090 1942 46 NI BB NOT_NAMED 1942-09-02 18:00:00 TS 24.2828 78.3861 main 0 0 _________OP___ -1 24.3000 78.2000 TC 30 24.2656 78.5721 1 6 285
1942241N18090 1942 46 NI BB NOT_NAMED 1942-09-02 21:00:00 TS 24.3877 78.0525 main 0 0 _________PP___ -1 24.4275 77.8775 TC 30 24.3480 78.2274 1 6 293
1942241N18090 1942 46 NI AS NOT_NAMED 1942-09-03 00:00:00 TS 24.5281 77.7470 main 0 0 _________OP___ -1 24.6000 77.6000 TC 30 24.4563 77.8940 1 6 301
1942241N18090 1942 46 NI AS NOT_NAMED 1942-09-03 03:00:00 TS 24.6925 77.4887 main 0 0 _________PO___ -1 24.7849 77.3774 TC 30 24.6000 77.6000 1 6 311
1942241N18090 1942 46 NI AS NOT_NAMED 1942-09-03 06:00:00 TS 24.8903 77.2908 main 0 0 _________OP___ -1 25.0000 77.2000 TC 30 24.7805 77.3817 1 5 322
1942241N18090 1942 46 NI AS NOT_NAMED 1942-09-03 09:00:00 TS 25.1160 77.1235 main 0 0 _________PP___ -1 25.2350 77.0424 TC 30 24.9970 77.2046 1 6 329
1942241N18090 1942 46 NI AS NOT_NAMED 1942-09-03 12:00:00 TS 25.3700 76.9752 main 0 0 _________OP___ -1 25.5000 76.9000 TC 30 25.2400 77.0503 1 6 334
1942241N18090 1942 46 NI AS NOT_NAMED 1942-09-03 15:00:00 TS 25.6500 76.8287 main 0 0 _________PO___ -1 25.8000 76.7574 TC 30 25.5000 76.9000 1 6 334
1942241N18090 1942 46 NI AS NOT_NAMED 1942-09-03 18:00:00 TS 25.9444 76.6686 main 0 0 _________OP___ -1 26.1000 76.6000 TC 30 25.7889 76.7372 1 7 333
1942241N18090 1942 46 NI AS NOT_NAMED 1942-09-03 21:00:00 TS 26.2336 76.4938 main 0 0 _________PP___ -1 26.3800 76.4150 TC 30 26.0872 76.5726 1 6 328
1942241N18090 1942 46 NI AS NOT_NAMED 1942-09-04 00:00:00 TS 26.4835 76.2983 main 0 0 _________OP___ -1 26.6000 76.2000 TC 30 26.3670 76.3967 1 6 319
1942241N18090 1942 46 NI AS NOT_NAMED 1942-09-04 03:00:00 TS 26.6612 76.0787 main 0 0 _________PO___ -1 26.7225 75.9573 TC 30 26.6000 76.2000 1 5 305
1942241N18090 1942 46 NI AS NOT_NAMED 1942-09-04 06:00:00 TS 26.7731 75.8355 main 0 0 _________OP___ -1 26.8000 75.7000 TC 30 26.7463 75.9711 1 5 296
1942241N18090 1942 46 NI AS NOT_NAMED 1942-09-04 09:00:00 TS 26.8725 75.5859 main 0 0 _________PP___ -1 26.9000 75.4500 TC 30 26.8450 75.7218 1 5 293
1942241N18090 1942 46 NI AS NOT_NAMED 1942-09-04 12:00:00 TS 26.9606 75.3308 main 0 0 _________OP___ -1 27.0000 75.2000 TC 30 26.9212 75.4617 1 5 291
1942241N18090 1942 46 NI AS NOT_NAMED 1942-09-04 15:00:00 TS 27.0462 75.0750 main 0 0 _________PO___ -1 27.0925 74.9499 TC 30 27.0000 75.2000 1 5 293
1942241N18090 1942 46 NI AS NOT_NAMED 1942-09-04 18:00:00 TS 27.1570 74.8088 main 0 0 _________OP___ -1 27.2000 74.7000 TC 30 27.1139 74.9176 1 5 297
1942241N18090 1942 46 NI AS NOT_NAMED 1942-09-04 21:00:00 TS 27.2889 74.5339 main 0 0 _________PP___ -1 27.3426 74.4276 TC 30 27.2353 74.6403 1 5 301
1942241N18090 1942 46 NI AS NOT_NAMED 1942-09-05 00:00:00 TS 27.4320 74.2963 main 0 0 _________OP___ -1 27.5000 74.2000 TC 30 27.3640 74.3927 1 5 309
1942241N18090 1942 46 NI AS NOT_NAMED 1942-09-05 03:00:00 TS 27.5750 74.1312 main 0 0 _________PO___ -1 27.6499 74.0624 TC 30 27.5000 74.2000 1 4 322
1942241N18090 1942 46 NI AS NOT_NAMED 1942-09-05 06:00:00 TS 27.7233 74.0400 main 0 0 _________OP___ -1 27.8000 74.0000 TC 30 27.6466 74.0801 1 3 340
1942241N18090 1942 46 NI AS NOT_NAMED 1942-09-05 09:00:00 TS 27.8748 74.0011 main 0 0 _________PP___ -1 27.9500 73.9849 TC 30 27.7997 74.0172 1 3 352
1942241N18090 1942 46 NI AS NOT_NAMED 1942-09-05 12:00:00 TS 28.0265 73.9979 main 0 0 _________OP___ -1 28.1000 74.0000 TC 30 27.9529 73.9958 1 3 0
1942241N18090 1942 46 NI AS NOT_NAMED 1942-09-05 15:00:00 TS 28.1787 73.9963 main 0 0 _________PO___ -1 28.2575 73.9925 TC 30 28.1000 74.0000 1 3 357
1942241N18090 1942 46 NI AS NOT_NAMED 1942-09-05 18:00:00 TS 28.3222 73.9976 main 0 0 _________OP___ -1 28.4000 74.0000 TC 30 28.2443 73.9952 1 3 0
1942241N18090 1942 46 NI AS NOT_NAMED 1942-09-05 21:00:00 TS 28.4475 74.0274 main 0 0 _________PP___ -1 28.5150 74.0425 TC 30 28.3800 74.0124 1 2 16
1942241N18090 1942 46 NI AS NOT_NAMED 1942-09-06 00:00:00 TS 28.5503 74.0742 main 0 0 _________OP___ -1 28.6000 74.1000 TC 30 28.5006 74.0484 1 2 24
1942241N18090 1942 46 NI AS NOT_NAMED 1942-09-06 03:00:00 TS 28.6287 74.1213 main 0 0 _________PO___ -1 28.6575 74.1425 TC 30 28.6000 74.1000 1 2 34
1942241N18090 1942 46 NI AS NOT_NAMED 1942-09-06 06:00:00 TS 28.6858 74.1783 main 0 0 _________OP___ -1 28.7000 74.2000 TC 30 28.6716 74.1566 1 2 47
1942241N18090 1942 46 NI AS NOT_NAMED 1942-09-06 09:00:00 TS 28.7362 74.2600 main 0 0 _________PP___ -1 28.7500 74.2925 TC 30 28.7225 74.2276 1 2 58
1942241N18090 1942 46 NI AS NOT_NAMED 1942-09-06 12:00:00 TS 28.7811 74.3549 main 0 0 _________OP___ -1 28.8000 74.4000 TC 30 28.7622 74.3097 1 2 62
1942241N18090 1942 46 NI AS NOT_NAMED 1942-09-06 15:00:00 TS 28.8250 74.4500 main 0 0 _________PO___ -1 28.8500 74.5000 TC 30 28.8000 74.4000 1 2 60
1942241N18090 1942 46 NI AS NOT_NAMED 1942-09-06 18:00:00 TS 28.8750 74.5424 main 0 0 _________OP___ -1 28.9000 74.6000 TC 30 28.8500 74.4847 1 2 58
1942241N18090 1942 46 NI AS NOT_NAMED 1942-09-06 21:00:00 TS 28.9249 74.6350 main 0 0 _________PP___ -1 28.9500 74.6925 TC 30 28.8999 74.5776 1 2 60
1942241N18090 1942 46 NI AS NOT_NAMED 1942-09-07 00:00:00 TS 28.9750 74.7408 main 0 0 _________OP___ -1 29.0000 74.8000 TC 30 28.9499 74.6816 1 2 64
1942241N18090 1942 46 NI AS NOT_NAMED 1942-09-07 03:00:00 TS 29.0250 74.8713 main 0 0 _________PO___ -1 29.0500 74.9425 TC 30 29.0000 74.8000 1 3 67
1942241N18090 1942 46 NI AS NOT_NAMED 1942-09-07 06:00:00 TS 29.0791 75.0198 main 0 0 _________OP___ -1 29.1000 75.1000 TC 30 29.0582 74.9396 1 3 67
1942241N18090 1942 46 NI AS NOT_NAMED 1942-09-07 09:00:00 TS 29.1363 75.1749 main 0 0 _________PP___ -1 29.1575 75.2575 TC 30 29.1151 75.0924 1 3 69
1942241N18090 1942 46 NI AS NOT_NAMED 1942-09-07 12:00:00 TS 29.1822 75.3245 main 0 0 _________OP___ -1 29.2000 75.4000 TC 30 29.1644 75.2490 1 2 74
1942241N18090 1942 46 NI AS NOT_NAMED 1942-09-07 15:00:00 TS 29.2037 75.4500 main 0 0 _________PO___ -1 29.2075 75.5000 TC 30 29.2000 75.4000 1 2 82
1942241N18090 1942 46 NI AS NOT_NAMED 1942-09-07 18:00:00 TS 29.2100 75.5647 main 0 0 _________OP___ -1 29.2000 75.6000 TC 30 29.2175 75.5382 1 2 88
1942241N18090 1942 46 NI AS NOT_NAMED 1942-09-07 21:00:00 TS 29.2110 75.6941 main 0 0 _________PP___ -1 29.1976 75.7375 TC 30 29.2200 75.6651 1 2 90
1942241N18090 1942 46 NI AS NOT_NAMED 1942-09-08 00:00:00 TS 29.2083 75.8230 main 0 0 _________OP___ -1 29.2000 75.9000 TC 30 29.2125 75.7845 1 2 93
1942241N18090 1942 46 NI AS NOT_NAMED 1942-09-08 03:00:00 NR 29.2000 75.9000 main 0 __________O___ -1 TC 29.2000 75.9000 1 1 97

IBTrACS Databaseについて

本データベースは、米国NOAAが公開する1842年以降の世界の熱帯低気圧のベストトラックデータアーカイブInternational Best Track Archive for Climate Stewardship (IBTrACS)を、ウェブで閲覧しやすい形式に変換したものです。

最終更新日:2021-10-21